createdAt,value
2022-09-28T00:06:53.936Z,15.53
2022-09-28T00:28:36.984Z,14.36
2022-09-28T00:50:26.238Z,15.15
2022-09-28T01:12:09.932Z,13.64
2022-09-28T01:34:00.256Z,14.68
2022-09-28T01:55:45.876Z,11.46
2022-09-28T02:17:29.064Z,14.05
2022-09-28T02:39:16.316Z,12.91
2022-09-28T03:01:15.199Z,13.92
2022-09-28T03:23:23.204Z,12.64
2022-09-28T03:45:01.676Z,13.42
2022-09-28T04:06:45.371Z,14.06
2022-09-28T04:28:47.258Z,12.30
2022-09-28T04:50:30.762Z,13.12
2022-09-28T05:12:29.076Z,14.34
2022-09-28T05:34:12.528Z,13.85
2022-09-28T05:55:59.256Z,13.72
2022-09-28T06:17:43.281Z,14.06
2022-09-28T06:39:58.533Z,15.10
2022-09-28T07:01:41.973Z,13.11
2022-09-28T07:23:49.595Z,14.58
2022-09-28T07:45:39.388Z,13.92
2022-09-28T08:07:25.069Z,17.56
2022-09-28T08:29:16.330Z,24.74
2022-09-28T08:51:14.227Z,29.54
2022-09-28T09:13:30.247Z,33.68
2022-09-28T09:35:53.353Z,35.08
2022-09-28T09:58:03.053Z,31.45
2022-09-28T10:19:59.195Z,27.09
2022-09-28T10:42:03.716Z,22.10
2022-09-28T11:03:54.959Z,17.14
2022-09-28T11:25:39.095Z,13.71
2022-09-28T11:47:54.961Z,13.62
2022-09-28T12:09:45.477Z,13.47
2022-09-28T12:31:38.588Z,13.28
2022-09-28T12:53:38.936Z,16.68
2022-09-28T13:15:41.066Z,16.88
2022-09-28T13:37:25.917Z,15.06
2022-09-28T13:59:18.751Z,13.86
2022-09-28T14:21:34.596Z,17.09
2022-09-28T14:43:26.201Z,16.57
2022-09-28T15:05:16.300Z,15.48
2022-09-28T15:26:59.917Z,15.59
2022-09-28T15:48:51.650Z,17.02
2022-09-28T16:10:36.993Z,14.45
2022-09-28T16:32:37.719Z,15.89
2022-09-28T16:54:41.557Z,17.09
2022-09-28T17:16:57.338Z,13.09
2022-09-28T17:38:31.903Z,14.39
2022-09-28T18:00:17.089Z,16.47
2022-09-28T18:22:01.208Z,13.40
2022-09-28T18:43:49.166Z,14.65
2022-09-28T19:05:34.441Z,13.35
2022-09-28T19:27:17.881Z,14.31
2022-09-28T19:49:02.593Z,13.36
2022-09-28T20:10:51.782Z,14.56
2022-09-28T20:32:35.090Z,13.33
2022-09-28T20:54:18.144Z,14.04
2022-09-28T21:16:02.874Z,12.86
2022-09-28T21:37:45.666Z,13.70
2022-09-28T21:59:28.708Z,14.07
2022-09-28T22:21:14.297Z,10.63
2022-09-28T22:42:57.359Z,12.85
2022-09-28T23:04:40.506Z,13.13
2022-09-28T23:26:26.396Z,9.79
2022-09-28T23:48:09.414Z,12.59
